Time;durP1;ratioP1;P1;durP2;ratioP2;P2;SDS_P1;SDS_P2;PMS_P1;PMS_P2;Temp;Humidity;BMP_temperature;BMP_pressure;BME280_temperature;BME280_humidity;BME280_pressure;Samples;Min_cycle;Max_cycle;Signal;HPM_P1;HPM_P2
2023/11/18 00:00:12;;;;;;;;;;;;;;;;;;5096718;28;19915;-72
2023/11/18 00:02:38;;;;;;;;;;;;;;;;;;5096573;28;20326;-72
2023/11/18 00:05:04;;;;;;;;;;;;;;;;;;5094835;28;20007;-72
2023/11/18 00:07:32;;;;;;;;;;;;;;;;;;5096604;28;20363;-72
2023/11/18 00:09:57;;;;;;;;;;;;;;;;;;5096279;28;20011;-72
2023/11/18 00:12:26;;;;;;;;;;;;;;;;;;5095930;28;20011;-72
2023/11/18 00:14:52;;;;;;;;;;;;;;;;;;5096325;28;19931;-72
2023/11/18 00:17:20;;;;;;;;;;;;;;;;;;5096005;28;20415;-72
2023/11/18 00:19:47;;;;;;;;;;;;;;;;;;5096163;28;19912;-72
2023/11/18 00:22:13;;;;;;;;;;;;;;;;;;5096220;28;20039;-72
2023/11/18 00:24:39;;;;;;;;;;;;;;;;;;5095880;28;19912;-73
2023/11/18 00:27:08;;;;;;;;;;;;;;;;;;5096116;28;19915;-73
2023/11/18 00:29:34;;;;;;;;;;;;;;;;;;5095838;28;20367;-72
2023/11/18 00:32:00;;;;;;;;;;;;;;;;;;5095591;28;19961;-72
2023/11/18 00:34:26;;;;;;;;;;;;;;;;;;5096051;28;19912;-72
2023/11/18 00:36:52;;;;;;;;;;;;;;;;;;5096018;28;20330;-72
2023/11/18 00:39:18;;;;;;;;;;;;;;;;;;5095804;28;19999;-72
2023/11/18 00:41:44;;;;;;;;;;;;;;;;;;5095830;28;19994;-72
2023/11/18 00:44:10;;;;;;;;;;;;;;;;;;5094595;28;19908;-72
2023/11/18 00:46:36;;;;;;;;;;;;;;;;;;5095318;28;19912;-72
2023/11/18 00:49:02;;;;;;;;;;;;;;;;;;5094273;28;19945;-72
2023/11/18 00:51:28;;;;;;;;;;;;;;;;;;5095755;28;19916;-72
2023/11/18 00:53:54;;;;;;;;;;;;;;;;;;5095206;28;20368;-72
2023/11/18 00:56:21;;;;;;;;;;;;;;;;;;5095643;28;19908;-72
2023/11/18 00:58:47;;;;;;;;;;;;;;;;;;5094201;28;19908;-71
2023/11/18 01:01:13;;;;;;;;;;;;;;;;;;5095089;28;19962;-72
2023/11/18 01:03:39;;;;;;;;;;;;;;;;;;5095350;28;19914;-71
2023/11/18 01:06:06;;;;;;;;;;;;;;;;;;5095589;28;20049;-71
2023/11/18 01:08:32;;;;;;;;;;;;;;;;;;5093564;28;19930;-71
2023/11/18 01:10:58;;;;;;;;;;;;;;;;;;5095269;28;19913;-71
2023/11/18 01:13:26;;;;;;;;;;;;;;;;;;5095224;28;20052;-71
2023/11/18 01:15:52;;;;;;;;;;;;;;;;;;5094753;28;19939;-71
2023/11/18 01:18:18;;;;;;;;;;;;;;;;;;5095070;28;19922;-71
2023/11/18 01:20:44;;;;;;;;;;;;;;;;;;5094652;28;19908;-71
2023/11/18 01:23:10;;;;;;;;;;;;;;;;;;5093604;28;19908;-72
2023/11/18 01:25:36;;;;;;;;;;;;;;;;;;5095153;28;20007;-71
2023/11/18 01:28:03;;;;;;;;;;;;;;;;;;5094311;28;19919;-71
2023/11/18 01:30:29;;;;;;;;;;;;;;;;;;5095135;28;19916;-72
2023/11/18 01:32:56;;;;;;;;;;;;;;;;;;5094836;28;19912;-72
2023/11/18 01:35:26;;;;;;;;;;;;;;;;;;5094355;28;20000;-72
2023/11/18 01:37:52;;;;;;;;;;;;;;;;;;5094767;28;20376;-72
2023/11/18 01:40:19;;;;;;;;;;;;;;;;;;5094633;28;19999;-72
2023/11/18 01:42:46;;;;;;;;;;;;;;;;;;5094533;28;20317;-72
2023/11/18 01:45:12;;;;;;;;;;;;;;;;;;5094618;28;19959;-72
2023/11/18 01:47:38;;;;;;;;;;;;;;;;;;5094639;28;19947;-72
2023/11/18 01:50:06;;;;;;;;;;;;;;;;;;5094000;28;20015;-72
2023/11/18 01:52:32;;;;;;;;;;;;;;;;;;5094541;28;19908;-72
2023/11/18 01:54:58;;;;;;;;;;;;;;;;;;5094466;28;19915;-72
2023/11/18 01:57:26;;;;;;;;;;;;;;;;;;5094012;28;20273;-72
2023/11/18 01:59:52;;;;;;;;;;;;;;;;;;5093946;28;19953;-72
2023/11/18 02:02:20;;;;;;;;;;;;;;;;;;5094297;28;19908;-72
2023/11/18 02:04:46;;;;;;;;;;;;;;;;;;5093911;28;19999;-72
2023/11/18 02:07:14;;;;;;;;;;;;;;;;;;5094357;28;19912;-72
2023/11/18 02:09:40;;;;;;;;;;;;;;;;;;5094324;28;20302;-72
2023/11/18 02:12:09;;;;;;;;;;;;;;;;;;5093708;28;19923;-72
2023/11/18 02:14:37;;;;;;;;;;;;;;;;;;5094540;28;20096;-72
2023/11/18 02:17:03;;;;;;;;;;;;;;;;;;5093713;28;19915;-71
2023/11/18 02:19:29;;;;;;;;;;;;;;;;;;5094110;28;20271;-72
2023/11/18 02:21:56;;;;;;;;;;;;;;;;;;5094196;28;19919;-72
2023/11/18 02:24:23;;;;;;;;;;;;;;;;;;5093635;28;19915;-72
2023/11/18 02:26:50;;;;;;;;;;;;;;;;;;5094092;28;19990;-71
2023/11/18 02:29:16;;;;;;;;;;;;;;;;;;5092453;28;19931;-74
2023/11/18 02:31:42;;;;;;;;;;;;;;;;;;5093558;28;19908;-73
2023/11/18 02:34:08;;;;;;;;;;;;;;;;;;5092711;28;19954;-73
2023/11/18 02:36:36;;;;;;;;;;;;;;;;;;5092628;28;20007;-73
2023/11/18 02:39:02;;;;;;;;;;;;;;;;;;5093537;28;19912;-73
2023/11/18 02:41:29;;;;;;;;;;;;;;;;;;5093904;28;19909;-73
2023/11/18 02:43:57;;;;;;;;;;;;;;;;;;5093831;28;19908;-73
2023/11/18 02:46:27;;;;;;;;;;;;;;;;;;5093513;28;19914;-73
2023/11/18 02:48:55;;;;;;;;;;;;;;;;;;5093909;28;19916;-72
2023/11/18 02:51:21;;;;;;;;;;;;;;;;;;5093799;28;20428;-73
2023/11/18 02:53:48;;;;;;;;;;;;;;;;;;5093411;28;19908;-73
2023/11/18 02:56:14;;;;;;;;;;;;;;;;;;5093786;28;20337;-72
2023/11/18 02:58:40;;;;;;;;;;;;;;;;;;5093758;28;19908;-72
2023/11/18 03:01:06;;;;;;;;;;;;;;;;;;5093312;28;19916;-72
2023/11/18 03:03:32;;;;;;;;;;;;;;;;;;5093673;28;19916;-72
2023/11/18 03:05:59;;;;;;;;;;;;;;;;;;5093726;28;20062;-72
2023/11/18 03:08:28;;;;;;;;;;;;;;;;;;5093155;28;19912;-72
2023/11/18 03:10:54;;;;;;;;;;;;;;;;;;5094021;28;19908;-72
2023/11/18 03:13:21;;;;;;;;;;;;;;;;;;5095889;28;19908;-72
2023/11/18 03:15:48;;;;;;;;;;;;;;;;;;5096249;28;20280;-72
2023/11/18 03:18:15;;;;;;;;;;;;;;;;;;5096168;28;19989;-73
2023/11/18 03:20:41;;;;;;;;;;;;;;;;;;5097163;28;20272;-72
2023/11/18 03:23:09;;;;;;;;;;;;;;;;;;5096099;28;19908;-72
2023/11/18 03:25:34;;;;;;;;;;;;;;;;;;5097322;28;20002;-72
2023/11/18 03:28:00;;;;;;;;;;;;;;;;;;5096769;28;19943;-72
2023/11/18 03:30:28;;;;;;;;;;;;;;;;;;5097628;28;20352;-73
2023/11/18 03:32:55;;;;;;;;;;;;;;;;;;5097139;28;19939;-73
2023/11/18 03:35:21;;;;;;;;;;;;;;;;;;5096697;28;19909;-72
2023/11/18 03:37:47;;;;;;;;;;;;;;;;;;5097175;28;19961;-72
2023/11/18 03:40:13;;;;;;;;;;;;;;;;;;5097019;28;19908;-72
2023/11/18 03:42:39;;;;;;;;;;;;;;;;;;5096564;28;19961;-72
2023/11/18 03:45:05;;;;;;;;;;;;;;;;;;5096954;28;19951;-72
2023/11/18 03:47:31;;;;;;;;;;;;;;;;;;5096887;28;19944;-72
2023/11/18 03:49:58;;;;;;;;;;;;;;;;;;5096483;28;19919;-72
2023/11/18 03:52:24;;;;;;;;;;;;;;;;;;5096900;28;20058;-72
2023/11/18 03:54:50;;;;;;;;;;;;;;;;;;5096717;28;19908;-72
2023/11/18 03:57:16;;;;;;;;;;;;;;;;;;5096348;28;19934;-72
2023/11/18 03:59:42;;;;;;;;;;;;;;;;;;5096751;28;19998;-72
2023/11/18 04:02:09;;;;;;;;;;;;;;;;;;5096706;28;19915;-73
2023/11/18 04:04:35;;;;;;;;;;;;;;;;;;5096262;28;20001;-72
2023/11/18 04:07:01;;;;;;;;;;;;;;;;;;5095281;28;19912;-73
2023/11/18 04:09:27;;;;;;;;;;;;;;;;;;5094798;28;19913;-72
2023/11/18 04:11:52;;;;;;;;;;;;;;;;;;5096692;28;20003;-72
2023/11/18 04:14:18;;;;;;;;;;;;;;;;;;5096366;28;19908;-72
2023/11/18 04:16:44;;;;;;;;;;;;;;;;;;5095890;28;19912;-72
2023/11/18 04:19:10;;;;;;;;;;;;;;;;;;5095030;28;19915;-72
2023/11/18 04:21:36;;;;;;;;;;;;;;;;;;5094698;28;19938;-72
2023/11/18 04:24:02;;;;;;;;;;;;;;;;;;5095753;28;19919;-73
2023/11/18 04:26:28;;;;;;;;;;;;;;;;;;5096157;28;19961;-72
2023/11/18 04:28:54;;;;;;;;;;;;;;;;;;5095809;28;20007;-73
2023/11/18 04:31:21;;;;;;;;;;;;;;;;;;5095816;28;19916;-72
2023/11/18 04:33:47;;;;;;;;;;;;;;;;;;5096116;28;19953;-72
2023/11/18 04:36:14;;;;;;;;;;;;;;;;;;5096042;28;19916;-72
2023/11/18 04:38:41;;;;;;;;;;;;;;;;;;5095535;28;19951;-72
2023/11/18 04:41:06;;;;;;;;;;;;;;;;;;5095869;28;19908;-72
2023/11/18 04:43:32;;;;;;;;;;;;;;;;;;5095784;28;19908;-72
2023/11/18 04:45:59;;;;;;;;;;;;;;;;;;5095390;28;19915;-72
2023/11/18 04:48:25;;;;;;;;;;;;;;;;;;5095740;28;20295;-72
2023/11/18 04:50:51;;;;;;;;;;;;;;;;;;5095692;28;19961;-72
2023/11/18 04:53:17;;;;;;;;;;;;;;;;;;5095211;28;19977;-72
2023/11/18 04:55:42;;;;;;;;;;;;;;;;;;5095625;28;20380;-72
2023/11/18 04:58:09;;;;;;;;;;;;;;;;;;5095755;28;19920;-73
2023/11/18 05:00:35;;;;;;;;;;;;;;;;;;5095081;28;20356;-73
2023/11/18 05:03:03;;;;;;;;;;;;;;;;;;5095711;28;19953;-73
2023/11/18 05:05:29;;;;;;;;;;;;;;;;;;5095374;28;19954;-72
2023/11/18 05:07:55;;;;;;;;;;;;;;;;;;5094967;28;19915;-73
2023/11/18 05:10:21;;;;;;;;;;;;;;;;;;5095348;28;19916;-73
2023/11/18 05:12:55;;;;;;;;;;;;;;;;;;5094819;28;19943;-73
2023/11/18 05:15:24;;;;;;;;;;;;;;;;;;5094034;28;19908;-73
2023/11/18 05:17:50;;;;;;;;;;;;;;;;;;5095161;28;19908;-73
2023/11/18 05:20:17;;;;;;;;;;;;;;;;;;5094730;28;19970;-74
2023/11/18 05:22:43;;;;;;;;;;;;;;;;;;5095323;28;19998;-73
2023/11/18 05:25:12;;;;;;;;;;;;;;;;;;5095024;28;19943;-73
2023/11/18 05:27:40;;;;;;;;;;;;;;;;;;5094623;28;19948;-73
2023/11/18 05:30:06;;;;;;;;;;;;;;;;;;5094729;28;19946;-73
2023/11/18 05:32:32;;;;;;;;;;;;;;;;;;5094861;28;19908;-73
2023/11/18 05:34:59;;;;;;;;;;;;;;;;;;5092402;28;19908;-73
2023/11/18 05:37:25;;;;;;;;;;;;;;;;;;5094991;28;19908;-73
2023/11/18 05:39:59;;;;;;;;;;;;;;;;;;5094809;28;19966;-73
2023/11/18 05:42:25;;;;;;;;;;;;;;;;;;5094324;28;19991;-73
2023/11/18 05:44:57;;;;;;;;;;;;;;;;;;5094669;28;19954;-72
2023/11/18 05:47:23;;;;;;;;;;;;;;;;;;5094669;28;19908;-72
2023/11/18 05:49:49;;;;;;;;;;;;;;;;;;5094151;28;20360;-73
2023/11/18 05:52:15;;;;;;;;;;;;;;;;;;5094499;28;20437;-72
2023/11/18 05:54:41;;;;;;;;;;;;;;;;;;5093184;28;19908;-72
2023/11/18 05:57:07;;;;;;;;;;;;;;;;;;5094139;28;19953;-73
2023/11/18 05:59:33;;;;;;;;;;;;;;;;;;5094526;28;19908;-72
2023/11/18 06:01:59;;;;;;;;;;;;;;;;;;5094250;28;19995;-72
2023/11/18 06:04:25;;;;;;;;;;;;;;;;;;5093074;28;19953;-71
2023/11/18 06:06:51;;;;;;;;;;;;;;;;;;5094296;28;20352;-71
2023/11/18 06:09:20;;;;;;;;;;;;;;;;;;5093843;28;20352;-73
2023/11/18 06:11:46;;;;;;;;;;;;;;;;;;5094222;28;19974;-72
2023/11/18 06:14:12;;;;;;;;;;;;;;;;;;5094111;28;19909;-73
2023/11/18 06:16:41;;;;;;;;;;;;;;;;;;5094059;28;19954;-72
2023/11/18 06:19:08;;;;;;;;;;;;;;;;;;5094102;28;19944;-72
2023/11/18 06:21:34;;;;;;;;;;;;;;;;;;5094663;28;19908;-73
2023/11/18 06:24:00;;;;;;;;;;;;;;;;;;5093833;28;20276;-72
2023/11/18 06:26:26;;;;;;;;;;;;;;;;;;5094358;28;19913;-72
2023/11/18 06:28:52;;;;;;;;;;;;;;;;;;5094375;28;19927;-72
2023/11/18 06:31:18;;;;;;;;;;;;;;;;;;5095615;28;20272;-73
2023/11/18 06:33:44;;;;;;;;;;;;;;;;;;5094739;28;20386;-74
2023/11/18 06:36:10;;;;;;;;;;;;;;;;;;5094702;28;19908;-72
2023/11/18 06:38:36;;;;;;;;;;;;;;;;;;5093554;28;19962;-73
2023/11/18 06:41:05;;;;;;;;;;;;;;;;;;5093937;28;19916;-73
2023/11/18 06:43:45;;;;;;;;;;;;;;;;;;5092570;28;20358;-73
2023/11/18 06:46:14;;;;;;;;;;;;;;;;;;5096205;28;19934;-73
2023/11/18 06:48:40;;;;;;;;;;;;;;;;;;5098047;28;19934;-72
2023/11/18 06:51:07;;;;;;;;;;;;;;;;;;5098006;28;20355;-72
2023/11/18 06:53:34;;;;;;;;;;;;;;;;;;5097956;28;19908;-71
2023/11/18 06:56:00;;;;;;;;;;;;;;;;;;5097827;28;19966;-72
2023/11/18 06:58:27;;;;;;;;;;;;;;;;;;5097388;28;19912;-72
2023/11/18 07:00:53;;;;;;;;;;;;;;;;;;5098260;28;19954;-73
2023/11/18 07:03:19;;;;;;;;;;;;;;;;;;5097967;28;19909;-73
2023/11/18 07:05:45;;;;;;;;;;;;;;;;;;5097290;28;20391;-72
2023/11/18 07:08:12;;;;;;;;;;;;;;;;;;5097775;28;19908;-73
2023/11/18 07:10:39;;;;;;;;;;;;;;;;;;5097836;28;20466;-72
2023/11/18 07:13:05;;;;;;;;;;;;;;;;;;5097175;28;19989;-71
2023/11/18 07:15:31;;;;;;;;;;;;;;;;;;5096162;28;20322;-71
2023/11/18 07:17:57;;;;;;;;;;;;;;;;;;5097486;28;20365;-73
2023/11/18 07:20:23;;;;;;;;;;;;;;;;;;5095737;28;20280;-72
2023/11/18 07:22:49;;;;;;;;;;;;;;;;;;5097322;28;20264;-73
2023/11/18 07:25:15;;;;;;;;;;;;;;;;;;5097295;28;20295;-73
2023/11/18 07:27:41;;;;;;;;;;;;;;;;;;5096806;28;20319;-72
2023/11/18 07:30:07;;;;;;;;;;;;;;;;;;5097014;28;19982;-74
2023/11/18 07:32:33;;;;;;;;;;;;;;;;;;5097161;28;19912;-73
2023/11/18 07:34:59;;;;;;;;;;;;;;;;;;5096792;28;19908;-73
2023/11/18 07:37:26;;;;;;;;;;;;;;;;;;5097390;28;19919;-73
2023/11/18 07:39:55;;;;;;;;;;;;;;;;;;5097034;28;19914;-72
2023/11/18 07:42:20;;;;;;;;;;;;;;;;;;5096566;28;19953;-73
2023/11/18 07:44:47;;;;;;;;;;;;;;;;;;5096999;28;20011;-74
2023/11/18 07:47:16;;;;;;;;;;;;;;;;;;5096851;28;19930;-73
2023/11/18 07:49:41;;;;;;;;;;;;;;;;;;5096403;28;19916;-73
2023/11/18 07:52:07;;;;;;;;;;;;;;;;;;5095473;28;19908;-73
2023/11/18 07:54:33;;;;;;;;;;;;;;;;;;5096345;28;20004;-72
2023/11/18 07:56:59;;;;;;;;;;;;;;;;;;5095876;28;19962;-72
2023/11/18 07:59:26;;;;;;;;;;;;;;;;;;5096588;28;20357;-73
2023/11/18 08:01:53;;;;;;;;;;;;;;;;;;5096227;28;19908;-73
2023/11/18 08:04:20;;;;;;;;;;;;;;;;;;5096513;28;19999;-73
2023/11/18 08:06:47;;;;;;;;;;;;;;;;;;5096512;28;19912;-73
2023/11/18 08:09:14;;;;;;;;;;;;;;;;;;5096027;28;19951;-73
2023/11/18 08:11:41;;;;;;;;;;;;;;;;;;5096465;28;19908;-72
2023/11/18 08:14:07;;;;;;;;;;;;;;;;;;5096477;28;20017;-73
2023/11/18 08:16:33;;;;;;;;;;;;;;;;;;5095849;28;20318;-71
2023/11/18 08:18:59;;;;;;;;;;;;;;;;;;5096301;28;20010;-72
2023/11/18 08:21:25;;;;;;;;;;;;;;;;;;5096227;28;20384;-73
2023/11/18 08:23:51;;;;;;;;;;;;;;;;;;5096071;28;19923;-73
2023/11/18 08:26:17;;;;;;;;;;;;;;;;;;5096155;28;19916;-74
2023/11/18 08:28:43;;;;;;;;;;;;;;;;;;5094612;28;19916;-73
2023/11/18 08:31:09;;;;;;;;;;;;;;;;;;5095601;28;19912;-72
2023/11/18 08:33:35;;;;;;;;;;;;;;;;;;5094691;28;20052;-72
2023/11/18 08:36:01;;;;;;;;;;;;;;;;;;5095958;28;19908;-72
2023/11/18 08:38:30;;;;;;;;;;;;;;;;;;5095660;28;19952;-73
2023/11/18 08:40:56;;;;;;;;;;;;;;;;;;5095880;28;19912;-73
2023/11/18 08:43:22;;;;;;;;;;;;;;;;;;5096041;28;19938;-72
2023/11/18 08:45:50;;;;;;;;;;;;;;;;;;5095457;28;19908;-72
2023/11/18 08:48:18;;;;;;;;;;;;;;;;;;5095716;28;19951;-72
2023/11/18 08:50:44;;;;;;;;;;;;;;;;;;5095253;28;20360;-72
2023/11/18 08:53:11;;;;;;;;;;;;;;;;;;5095617;28;19908;-72
2023/11/18 08:55:41;;;;;;;;;;;;;;;;;;5095595;28;19915;-72
2023/11/18 08:58:19;;;;;;;;;;;;;;;;;;5095414;28;20269;-73
2023/11/18 09:03:17;;;;;;;;;;;;;;;;;;5095404;28;19931;-73
2023/11/18 09:05:49;;;;;;;;;;;;;;;;;;5093688;28;20326;-73
2023/11/18 09:08:16;;;;;;;;;;;;;;;;;;5094864;28;19965;-73
2023/11/18 09:10:43;;;;;;;;;;;;;;;;;;5094521;28;19916;-72
2023/11/18 09:13:11;;;;;;;;;;;;;;;;;;5093473;28;19908;-72
2023/11/18 09:15:37;;;;;;;;;;;;;;;;;;5095699;28;19914;-74
2023/11/18 09:18:03;;;;;;;;;;;;;;;;;;5093831;28;20355;-72
2023/11/18 09:20:29;;;;;;;;;;;;;;;;;;5094633;28;20038;-73
2023/11/18 09:22:55;;;;;;;;;;;;;;;;;;5093744;28;19912;-73
2023/11/18 09:25:22;;;;;;;;;;;;;;;;;;5094908;28;20019;-74
2023/11/18 09:27:48;;;;;;;;;;;;;;;;;;5094567;28;19908;-73
2023/11/18 09:30:14;;;;;;;;;;;;;;;;;;5094693;28;20053;-73
2023/11/18 09:32:41;;;;;;;;;;;;;;;;;;5094770;28;19908;-73
2023/11/18 09:35:09;;;;;;;;;;;;;;;;;;5094351;28;20367;-74
2023/11/18 09:37:35;;;;;;;;;;;;;;;;;;5093761;28;19952;-72
2023/11/18 09:40:11;;;;;;;;;;;;;;;;;;5094350;28;20003;-73
2023/11/18 09:42:38;;;;;;;;;;;;;;;;;;5094757;28;19909;-73
2023/11/18 09:45:05;;;;;;;;;;;;;;;;;;5094535;28;20429;-73
2023/11/18 09:47:32;;;;;;;;;;;;;;;;;;5094263;28;19931;-74
2023/11/18 09:49:59;;;;;;;;;;;;;;;;;;5094823;28;20368;-73
2023/11/18 09:52:25;;;;;;;;;;;;;;;;;;5094442;28;19916;-73
2023/11/18 09:54:52;;;;;;;;;;;;;;;;;;5094082;28;20279;-73
2023/11/18 09:57:18;;;;;;;;;;;;;;;;;;5094369;28;19924;-73
2023/11/18 09:59:44;;;;;;;;;;;;;;;;;;5094366;28;19908;-72
2023/11/18 10:02:10;;;;;;;;;;;;;;;;;;5093839;28;19908;-73
2023/11/18 10:04:37;;;;;;;;;;;;;;;;;;5094443;28;19912;-73
2023/11/18 10:07:03;;;;;;;;;;;;;;;;;;5094260;28;19908;-74
2023/11/18 10:09:37;;;;;;;;;;;;;;;;;;5092553;28;19916;-74
2023/11/18 10:12:05;;;;;;;;;;;;;;;;;;5094216;28;19912;-73
2023/11/18 10:14:31;;;;;;;;;;;;;;;;;;5094106;28;19931;-74
2023/11/18 10:16:57;;;;;;;;;;;;;;;;;;5093817;28;20368;-72
2023/11/18 10:19:25;;;;;;;;;;;;;;;;;;5094341;28;19915;-73
2023/11/18 10:21:51;;;;;;;;;;;;;;;;;;5093846;28;20312;-73
2023/11/18 10:24:21;;;;;;;;;;;;;;;;;;5093687;28;19908;-74
2023/11/18 10:26:49;;;;;;;;;;;;;;;;;;5093830;28;20379;-73
2023/11/18 10:29:18;;;;;;;;;;;;;;;;;;5093240;28;20032;-73
2023/11/18 10:31:46;;;;;;;;;;;;;;;;;;5093118;28;21381;-73
2023/11/18 10:34:12;;;;;;;;;;;;;;;;;;5093903;28;19966;-73
2023/11/18 10:36:38;;;;;;;;;;;;;;;;;;5093495;28;19908;-73
2023/11/18 10:39:13;;;;;;;;;;;;;;;;;;5093766;28;19909;-73
2023/11/18 10:41:42;;;;;;;;;;;;;;;;;;5094358;28;19955;-72
2023/11/18 10:44:13;;;;;;;;;;;;;;;;;;5093340;28;19912;-73
2023/11/18 10:46:40;;;;;;;;;;;;;;;;;;5093990;28;19957;-72
2023/11/18 10:49:09;;;;;;;;;;;;;;;;;;5092464;28;19916;-72
2023/11/18 10:51:38;;;;;;;;;;;;;;;;;;5092091;28;19916;-74
2023/11/18 10:54:05;;;;;;;;;;;;;;;;;;5093718;28;19909;-72
2023/11/18 10:56:32;;;;;;;;;;;;;;;;;;5093654;28;19911;-72
2023/11/18 10:58:58;;;;;;;;;;;;;;;;;;5093471;28;20318;-72
2023/11/18 11:01:24;;;;;;;;;;;;;;;;;;5093725;28;19908;-73
2023/11/18 11:03:51;;;;;;;;;;;;;;;;;;5093626;28;19908;-72
2023/11/18 11:06:18;;;;;;;;;;;;;;;;;;5093307;28;19977;-73
2023/11/18 11:08:44;;;;;;;;;;;;;;;;;;5093551;28;19912;-73
2023/11/18 11:11:16;;;;;;;;;;;;;;;;;;5092278;28;19912;-73
2023/11/18 11:13:42;;;;;;;;;;;;;;;;;;5093177;28;19908;-72
2023/11/18 11:16:09;;;;;;;;;;;;;;;;;;5093422;28;19944;-72
2023/11/18 11:18:37;;;;;;;;;;;;;;;;;;5093054;28;19915;-72
2023/11/18 11:21:04;;;;;;;;;;;;;;;;;;5093421;28;19931;-73
2023/11/18 11:23:32;;;;;;;;;;;;;;;;;;5093363;28;20267;-73
2023/11/18 11:25:58;;;;;;;;;;;;;;;;;;5093392;28;19908;-72
2023/11/18 11:28:25;;;;;;;;;;;;;;;;;;5093144;28;19916;-73
2023/11/18 11:30:51;;;;;;;;;;;;;;;;;;5093321;28;19923;-72
2023/11/18 11:33:17;;;;;;;;;;;;;;;;;;5095612;28;19908;-72
2023/11/18 11:35:46;;;;;;;;;;;;;;;;;;5097524;28;19910;-73
2023/11/18 11:38:13;;;;;;;;;;;;;;;;;;5097286;28;20415;-73
2023/11/18 11:40:39;;;;;;;;;;;;;;;;;;5096634;28;19994;-73
2023/11/18 11:43:05;;;;;;;;;;;;;;;;;;5097071;28;20057;-74
2023/11/18 11:45:31;;;;;;;;;;;;;;;;;;5097079;28;19908;-73
2023/11/18 11:48:13;;;;;;;;;;;;;;;;;;5096447;28;19908;-73
2023/11/18 11:50:43;;;;;;;;;;;;;;;;;;5096836;28;19916;-73
2023/11/18 11:53:09;;;;;;;;;;;;;;;;;;5096769;28;19912;-73
2023/11/18 11:55:36;;;;;;;;;;;;;;;;;;5096201;28;19908;-74
2023/11/18 11:58:02;;;;;;;;;;;;;;;;;;5095485;28;19912;-73
2023/11/18 12:00:34;;;;;;;;;;;;;;;;;;5096767;28;20316;-74
2023/11/18 12:03:03;;;;;;;;;;;;;;;;;;5096201;28;19939;-74
2023/11/18 12:05:33;;;;;;;;;;;;;;;;;;5096520;28;19909;-73
2023/11/18 12:07:59;;;;;;;;;;;;;;;;;;5094799;28;19912;-72
2023/11/18 12:10:25;;;;;;;;;;;;;;;;;;5096405;28;19923;-72
2023/11/18 12:12:52;;;;;;;;;;;;;;;;;;5095199;28;20003;-72
2023/11/18 12:15:18;;;;;;;;;;;;;;;;;;5096110;28;19908;-73
2023/11/18 12:17:45;;;;;;;;;;;;;;;;;;5096431;28;19958;-72
2023/11/18 12:20:18;;;;;;;;;;;;;;;;;;5096488;28;20261;-72
2023/11/18 12:22:46;;;;;;;;;;;;;;;;;;5096092;28;19909;-72
2023/11/18 12:25:14;;;;;;;;;;;;;;;;;;5096177;28;19908;-72
2023/11/18 12:27:40;;;;;;;;;;;;;;;;;;5096083;28;19989;-73
2023/11/18 12:30:10;;;;;;;;;;;;;;;;;;5094210;28;19981;-73
2023/11/18 12:32:36;;;;;;;;;;;;;;;;;;5096539;28;20045;-72
2023/11/18 12:35:02;;;;;;;;;;;;;;;;;;5096107;28;19912;-73
2023/11/18 12:37:28;;;;;;;;;;;;;;;;;;5095589;28;20418;-73
2023/11/18 12:39:54;;;;;;;;;;;;;;;;;;5095872;28;20261;-73
2023/11/18 12:42:20;;;;;;;;;;;;;;;;;;5096091;28;20335;-73
2023/11/18 12:44:46;;;;;;;;;;;;;;;;;;5095167;28;19912;-73
2023/11/18 12:47:18;;;;;;;;;;;;;;;;;;5095784;28;19955;-73
2023/11/18 12:49:44;;;;;;;;;;;;;;;;;;5096211;28;19969;-73
2023/11/18 12:52:10;;;;;;;;;;;;;;;;;;5095185;28;19912;-73
2023/11/18 12:54:43;;;;;;;;;;;;;;;;;;5095580;28;19934;-73
2023/11/18 12:57:09;;;;;;;;;;;;;;;;;;5095300;28;19916;-73
2023/11/18 12:59:35;;;;;;;;;;;;;;;;;;5095499;28;19912;-73
2023/11/18 13:04:49;;;;;;;;;;;;;;;;;;5095318;28;19919;-73
2023/11/18 13:07:17;;;;;;;;;;;;;;;;;;5094132;28;19912;-73
2023/11/18 13:09:45;;;;;;;;;;;;;;;;;;5095340;28;19916;-73
2023/11/18 13:12:14;;;;;;;;;;;;;;;;;;5093619;28;19951;-73
2023/11/18 13:14:42;;;;;;;;;;;;;;;;;;5095238;28;19909;-73
2023/11/18 13:17:08;;;;;;;;;;;;;;;;;;5095222;28;20307;-72
2023/11/18 13:19:34;;;;;;;;;;;;;;;;;;5094780;28;19999;-72
2023/11/18 13:22:00;;;;;;;;;;;;;;;;;;5095091;28;19958;-72
2023/11/18 13:24:26;;;;;;;;;;;;;;;;;;5095011;28;19912;-73
2023/11/18 13:26:52;;;;;;;;;;;;;;;;;;5093389;28;19908;-73
2023/11/18 13:29:18;;;;;;;;;;;;;;;;;;5094812;28;20015;-72
2023/11/18 13:31:45;;;;;;;;;;;;;;;;;;5094939;28;19915;-72
2023/11/18 13:34:11;;;;;;;;;;;;;;;;;;5094462;28;19908;-72
2023/11/18 13:36:38;;;;;;;;;;;;;;;;;;5094840;28;19994;-72
2023/11/18 13:39:06;;;;;;;;;;;;;;;;;;5093370;28;20332;-72
2023/11/18 13:41:32;;;;;;;;;;;;;;;;;;5094728;28;19987;-72
2023/11/18 13:43:58;;;;;;;;;;;;;;;;;;5094629;28;20388;-73
2023/11/18 13:46:24;;;;;;;;;;;;;;;;;;5094232;28;19908;-72
2023/11/18 13:48:50;;;;;;;;;;;;;;;;;;5093277;28;19999;-72
2023/11/18 13:51:17;;;;;;;;;;;;;;;;;;5094505;28;20375;-72
2023/11/18 13:53:43;;;;;;;;;;;;;;;;;;5094445;28;19912;-74
2023/11/18 13:56:09;;;;;;;;;;;;;;;;;;5094130;28;19987;-74
2023/11/18 13:58:38;;;;;;;;;;;;;;;;;;5094420;28;20364;-71
2023/11/18 14:01:04;;;;;;;;;;;;;;;;;;5093970;28;20008;-71
2023/11/18 14:03:30;;;;;;;;;;;;;;;;;;5094411;28;19948;-73
2023/11/18 14:05:56;;;;;;;;;;;;;;;;;;5094437;28;19916;-73
2023/11/18 14:08:22;;;;;;;;;;;;;;;;;;5093882;28;19908;-74
2023/11/18 14:10:49;;;;;;;;;;;;;;;;;;5094169;28;19922;-73
2023/11/18 14:13:17;;;;;;;;;;;;;;;;;;5092834;28;20372;-73
2023/11/18 14:15:45;;;;;;;;;;;;;;;;;;5093748;28;20348;-73
2023/11/18 14:18:11;;;;;;;;;;;;;;;;;;5094404;28;19909;-73
2023/11/18 14:20:37;;;;;;;;;;;;;;;;;;5092887;28;19976;-73
2023/11/18 14:23:05;;;;;;;;;;;;;;;;;;5093979;28;20019;-74
2023/11/18 14:25:31;;;;;;;;;;;;;;;;;;5094239;28;20372;-72
2023/11/18 14:27:57;;;;;;;;;;;;;;;;;;5093891;28;19909;-72
2023/11/18 14:30:25;;;;;;;;;;;;;;;;;;5092254;28;20299;-72
2023/11/18 14:32:51;;;;;;;;;;;;;;;;;;5094021;28;19915;-72
2023/11/18 14:35:17;;;;;;;;;;;;;;;;;;5094369;28;20276;-72
2023/11/18 14:37:43;;;;;;;;;;;;;;;;;;5092149;28;19908;-72
2023/11/18 14:40:09;;;;;;;;;;;;;;;;;;5093979;28;19908;-73
2023/11/18 14:42:35;;;;;;;;;;;;;;;;;;5093495;28;19908;-73
2023/11/18 14:45:02;;;;;;;;;;;;;;;;;;5093842;28;19971;-73
2023/11/18 14:47:28;;;;;;;;;;;;;;;;;;5093663;28;19932;-73
2023/11/18 14:49:54;;;;;;;;;;;;;;;;;;5093537;28;19974;-73
2023/11/18 14:52:19;;;;;;;;;;;;;;;;;;5092598;28;19908;-73
2023/11/18 14:54:46;;;;;;;;;;;;;;;;;;5093705;28;19916;-73
2023/11/18 14:57:12;;;;;;;;;;;;;;;;;;5093306;28;19995;-73
2023/11/18 14:59:38;;;;;;;;;;;;;;;;;;5093671;28;19908;-73
2023/11/18 15:02:04;;;;;;;;;;;;;;;;;;5093623;28;19915;-72
2023/11/18 15:04:31;;;;;;;;;;;;;;;;;;5093582;28;20003;-73
2023/11/18 15:06:57;;;;;;;;;;;;;;;;;;5095847;28;19908;-73
2023/11/18 15:09:24;;;;;;;;;;;;;;;;;;5097640;28;19919;-73
2023/11/18 15:11:53;;;;;;;;;;;;;;;;;;5096068;28;19996;-73
2023/11/18 15:14:19;;;;;;;;;;;;;;;;;;5097559;28;19915;-73
2023/11/18 15:16:46;;;;;;;;;;;;;;;;;;5097903;28;19909;-72
2023/11/18 15:19:12;;;;;;;;;;;;;;;;;;5097090;28;19916;-72
2023/11/18 15:21:38;;;;;;;;;;;;;;;;;;5097573;28;19908;-72
2023/11/18 15:24:04;;;;;;;;;;;;;;;;;;5097397;28;19915;-73
2023/11/18 15:26:35;;;;;;;;;;;;;;;;;;5097013;28;19954;-73
2023/11/18 15:29:02;;;;;;;;;;;;;;;;;;5097132;28;20375;-74
2023/11/18 15:31:29;;;;;;;;;;;;;;;;;;5097128;28;19912;-74
2023/11/18 15:33:55;;;;;;;;;;;;;;;;;;5095666;28;20350;-74
2023/11/18 15:36:21;;;;;;;;;;;;;;;;;;5097222;28;19958;-74
2023/11/18 15:38:47;;;;;;;;;;;;;;;;;;5097001;28;19915;-74
2023/11/18 15:41:13;;;;;;;;;;;;;;;;;;5095838;28;19953;-74
2023/11/18 15:43:39;;;;;;;;;;;;;;;;;;5097285;28;19991;-74
2023/11/18 15:46:06;;;;;;;;;;;;;;;;;;5096592;28;19908;-74
2023/11/18 15:48:32;;;;;;;;;;;;;;;;;;5096957;28;19935;-74
2023/11/18 15:50:58;;;;;;;;;;;;;;;;;;5095608;28;19916;-74
2023/11/18 15:53:24;;;;;;;;;;;;;;;;;;5096738;28;19908;-73
2023/11/18 15:55:51;;;;;;;;;;;;;;;;;;5095315;28;19916;-74
2023/11/18 15:58:22;;;;;;;;;;;;;;;;;;5095498;28;19985;-74
2023/11/18 16:00:52;;;;;;;;;;;;;;;;;;5095126;28;19909;-72
2023/11/18 16:03:19;;;;;;;;;;;;;;;;;;5096588;28;19915;-73
2023/11/18 16:05:45;;;;;;;;;;;;;;;;;;5096567;28;19912;-73
2023/11/18 16:08:11;;;;;;;;;;;;;;;;;;5096132;28;19908;-73
2023/11/18 16:10:37;;;;;;;;;;;;;;;;;;5096510;28;19916;-72
2023/11/18 16:13:03;;;;;;;;;;;;;;;;;;5096481;28;20400;-73
2023/11/18 16:15:29;;;;;;;;;;;;;;;;;;5095996;28;19914;-73
2023/11/18 16:17:55;;;;;;;;;;;;;;;;;;5095773;28;19954;-75
2023/11/18 16:20:21;;;;;;;;;;;;;;;;;;5094948;28;20282;-73
2023/11/18 16:22:47;;;;;;;;;;;;;;;;;;5095978;28;19911;-74
2023/11/18 16:25:17;;;;;;;;;;;;;;;;;;5096272;28;19915;-73
2023/11/18 16:27:43;;;;;;;;;;;;;;;;;;5096382;28;19908;-73
2023/11/18 16:30:09;;;;;;;;;;;;;;;;;;5095597;28;19943;-73
2023/11/18 16:32:36;;;;;;;;;;;;;;;;;;5096586;28;19911;-73
2023/11/18 16:35:02;;;;;;;;;;;;;;;;;;5095725;28;19919;-73
2023/11/18 16:37:28;;;;;;;;;;;;;;;;;;5096022;28;20009;-73
2023/11/18 16:39:54;;;;;;;;;;;;;;;;;;5095983;28;19952;-73
2023/11/18 16:42:23;;;;;;;;;;;;;;;;;;5095498;28;19974;-73
2023/11/18 16:44:49;;;;;;;;;;;;;;;;;;5096341;28;19951;-73
2023/11/18 16:47:15;;;;;;;;;;;;;;;;;;5096555;28;20379;-73